sensor_id;sensor_type;location;lat;lon;timestamp;P1;durP1;ratioP1;P2;durP2;ratioP2
10383;SDS011;5238;43.508;4.980;2022-12-29T00:01:06;8.57;;;5.80;;
10383;SDS011;5238;43.508;4.980;2022-12-29T00:03:36;10.23;;;5.72;;
10383;SDS011;5238;43.508;4.980;2022-12-29T00:06:05;8.27;;;5.25;;
10383;SDS011;5238;43.508;4.980;2022-12-29T00:08:38;10.23;;;5.40;;
10383;SDS011;5238;43.508;4.980;2022-12-29T00:11:08;8.80;;;5.60;;
10383;SDS011;5238;43.508;4.980;2022-12-29T00:13:36;8.73;;;5.55;;
10383;SDS011;5238;43.508;4.980;2022-12-29T00:16:20;9.07;;;5.82;;
10383;SDS011;5238;43.508;4.980;2022-12-29T00:18:48;8.20;;;5.40;;
10383;SDS011;5238;43.508;4.980;2022-12-29T00:21:27;6.88;;;4.97;;
10383;SDS011;5238;43.508;4.980;2022-12-29T00:24:13;8.10;;;5.03;;
10383;SDS011;5238;43.508;4.980;2022-12-29T00:27:07;8.82;;;5.53;;
10383;SDS011;5238;43.508;4.980;2022-12-29T00:29:54;9.75;;;5.75;;
10383;SDS011;5238;43.508;4.980;2022-12-29T00:32:39;9.52;;;5.20;;
10383;SDS011;5238;43.508;4.980;2022-12-29T00:35:24;11.15;;;5.38;;
10383;SDS011;5238;43.508;4.980;2022-12-29T00:37:55;7.57;;;5.63;;
10383;SDS011;5238;43.508;4.980;2022-12-29T00:40:42;9.98;;;5.53;;
10383;SDS011;5238;43.508;4.980;2022-12-29T00:43:27;8.68;;;5.75;;
10383;SDS011;5238;43.508;4.980;2022-12-29T00:46:11;12.35;;;6.20;;
10383;SDS011;5238;43.508;4.980;2022-12-29T00:48:38;8.90;;;5.22;;
10383;SDS011;5238;43.508;4.980;2022-12-29T00:51:23;9.55;;;5.32;;
10383;SDS011;5238;43.508;4.980;2022-12-29T00:54:02;9.35;;;5.68;;
10383;SDS011;5238;43.508;4.980;2022-12-29T00:56:29;8.80;;;4.70;;
10383;SDS011;5238;43.508;4.980;2022-12-29T00:58:59;7.80;;;5.25;;
10383;SDS011;5238;43.508;4.980;2022-12-29T01:01:26;8.27;;;4.88;;
10383;SDS011;5238;43.508;4.980;2022-12-29T01:03:54;9.20;;;4.93;;
10383;SDS011;5238;43.508;4.980;2022-12-29T01:06:21;7.85;;;4.60;;
10383;SDS011;5238;43.508;4.980;2022-12-29T01:08:52;8.73;;;5.10;;
10383;SDS011;5238;43.508;4.980;2022-12-29T01:11:33;5.82;;;4.18;;
10383;SDS011;5238;43.508;4.980;2022-12-29T01:14:00;5.97;;;4.45;;
10383;SDS011;5238;43.508;4.980;2022-12-29T01:16:27;7.68;;;4.38;;
10383;SDS011;5238;43.508;4.980;2022-12-29T01:18:54;8.07;;;4.85;;
10383;SDS011;5238;43.508;4.980;2022-12-29T01:21:21;6.22;;;4.93;;
10383;SDS011;5238;43.508;4.980;2022-12-29T01:23:48;8.40;;;4.75;;
10383;SDS011;5238;43.508;4.980;2022-12-29T01:26:17;6.75;;;4.30;;
10383;SDS011;5238;43.508;4.980;2022-12-29T01:28:45;8.93;;;4.70;;
10383;SDS011;5238;43.508;4.980;2022-12-29T01:31:13;8.82;;;4.80;;
10383;SDS011;5238;43.508;4.980;2022-12-29T01:33:41;9.30;;;4.85;;
10383;SDS011;5238;43.508;4.980;2022-12-29T01:36:10;7.53;;;4.28;;
10383;SDS011;5238;43.508;4.980;2022-12-29T01:38:39;9.38;;;5.05;;
10383;SDS011;5238;43.508;4.980;2022-12-29T01:41:12;8.57;;;4.80;;
10383;SDS011;5238;43.508;4.980;2022-12-29T01:43:48;5.65;;;4.50;;
10383;SDS011;5238;43.508;4.980;2022-12-29T01:46:30;9.20;;;4.65;;
10383;SDS011;5238;43.508;4.980;2022-12-29T01:49:05;7.80;;;3.92;;
10383;SDS011;5238;43.508;4.980;2022-12-29T01:51:38;5.10;;;4.47;;
10383;SDS011;5238;43.508;4.980;2022-12-29T01:54:09;6.78;;;4.95;;
10383;SDS011;5238;43.508;4.980;2022-12-29T01:56:43;8.68;;;4.65;;
10383;SDS011;5238;43.508;4.980;2022-12-29T01:59:14;8.13;;;4.50;;
10383;SDS011;5238;43.508;4.980;2022-12-29T02:01:47;9.15;;;4.65;;
10383;SDS011;5238;43.508;4.980;2022-12-29T02:04:15;8.95;;;4.75;;
10383;SDS011;5238;43.508;4.980;2022-12-29T02:06:43;9.25;;;4.70;;
10383;SDS011;5238;43.508;4.980;2022-12-29T02:09:19;9.23;;;4.50;;
10383;SDS011;5238;43.508;4.980;2022-12-29T02:11:54;5.55;;;4.30;;
10383;SDS011;5238;43.508;4.980;2022-12-29T02:14:23;6.43;;;4.53;;
10383;SDS011;5238;43.508;4.980;2022-12-29T02:16:54;5.88;;;4.35;;
10383;SDS011;5238;43.508;4.980;2022-12-29T02:22:29;10.15;;;4.90;;
10383;SDS011;5238;43.508;4.980;2022-12-29T02:28:02;7.28;;;4.07;;
10383;SDS011;5238;43.508;4.980;2022-12-29T02:30:54;6.32;;;4.35;;
10383;SDS011;5238;43.508;4.980;2022-12-29T02:33:38;8.65;;;4.30;;
10383;SDS011;5238;43.508;4.980;2022-12-29T02:36:16;6.90;;;4.30;;
10383;SDS011;5238;43.508;4.980;2022-12-29T02:38:54;7.38;;;4.78;;
10383;SDS011;5238;43.508;4.980;2022-12-29T02:41:29;9.32;;;4.65;;
10383;SDS011;5238;43.508;4.980;2022-12-29T02:43:59;10.43;;;4.43;;
10383;SDS011;5238;43.508;4.980;2022-12-29T02:46:33;8.82;;;4.47;;
10383;SDS011;5238;43.508;4.980;2022-12-29T02:49:04;8.77;;;4.60;;
10383;SDS011;5238;43.508;4.980;2022-12-29T02:51:38;6.72;;;4.47;;
10383;SDS011;5238;43.508;4.980;2022-12-29T02:54:10;8.55;;;5.13;;
10383;SDS011;5238;43.508;4.980;2022-12-29T02:56:54;9.05;;;5.28;;
10383;SDS011;5238;43.508;4.980;2022-12-29T02:59:21;7.25;;;4.47;;
10383;SDS011;5238;43.508;4.980;2022-12-29T03:02:01;10.88;;;4.38;;
10383;SDS011;5238;43.508;4.980;2022-12-29T03:04:51;6.75;;;4.72;;
10383;SDS011;5238;43.508;4.980;2022-12-29T03:07:40;6.80;;;4.40;;
10383;SDS011;5238;43.508;4.980;2022-12-29T03:10:15;8.05;;;4.40;;
10383;SDS011;5238;43.508;4.980;2022-12-29T03:12:52;6.55;;;4.50;;
10383;SDS011;5238;43.508;4.980;2022-12-29T03:15:41;8.05;;;4.75;;
10383;SDS011;5238;43.508;4.980;2022-12-29T03:18:29;8.27;;;4.63;;
10383;SDS011;5238;43.508;4.980;2022-12-29T03:21:07;7.53;;;4.20;;
10383;SDS011;5238;43.508;4.980;2022-12-29T03:23:38;11.98;;;4.43;;
10383;SDS011;5238;43.508;4.980;2022-12-29T03:26:08;6.28;;;4.07;;
10383;SDS011;5238;43.508;4.980;2022-12-29T03:28:38;9.75;;;4.32;;
10383;SDS011;5238;43.508;4.980;2022-12-29T03:31:09;4.95;;;4.00;;
10383;SDS011;5238;43.508;4.980;2022-12-29T03:33:39;5.53;;;4.30;;
10383;SDS011;5238;43.508;4.980;2022-12-29T03:36:10;6.95;;;4.13;;
10383;SDS011;5238;43.508;4.980;2022-12-29T03:38:44;8.13;;;4.65;;
10383;SDS011;5238;43.508;4.980;2022-12-29T03:41:18;7.35;;;4.28;;
10383;SDS011;5238;43.508;4.980;2022-12-29T03:44:05;7.40;;;4.47;;
10383;SDS011;5238;43.508;4.980;2022-12-29T03:46:36;7.90;;;4.18;;
10383;SDS011;5238;43.508;4.980;2022-12-29T03:49:05;9.63;;;5.30;;
10383;SDS011;5238;43.508;4.980;2022-12-29T03:51:39;9.15;;;4.50;;
10383;SDS011;5238;43.508;4.980;2022-12-29T03:54:06;8.02;;;4.15;;
10383;SDS011;5238;43.508;4.980;2022-12-29T03:56:33;8.45;;;4.25;;
10383;SDS011;5238;43.508;4.980;2022-12-29T03:59:00;7.05;;;4.13;;
10383;SDS011;5238;43.508;4.980;2022-12-29T04:01:27;10.77;;;4.28;;
10383;SDS011;5238;43.508;4.980;2022-12-29T04:03:57;7.53;;;4.20;;
10383;SDS011;5238;43.508;4.980;2022-12-29T04:06:26;6.80;;;4.60;;
10383;SDS011;5238;43.508;4.980;2022-12-29T04:08:53;9.27;;;4.00;;
10383;SDS011;5238;43.508;4.980;2022-12-29T04:11:20;6.38;;;4.32;;
10383;SDS011;5238;43.508;4.980;2022-12-29T04:13:47;6.63;;;4.13;;
10383;SDS011;5238;43.508;4.980;2022-12-29T04:16:14;8.93;;;4.97;;
10383;SDS011;5238;43.508;4.980;2022-12-29T04:18:42;7.93;;;4.35;;
10383;SDS011;5238;43.508;4.980;2022-12-29T04:21:10;8.70;;;4.60;;
10383;SDS011;5238;43.508;4.980;2022-12-29T04:23:47;8.70;;;4.47;;
10383;SDS011;5238;43.508;4.980;2022-12-29T04:26:15;7.95;;;4.10;;
10383;SDS011;5238;43.508;4.980;2022-12-29T04:28:51;10.23;;;4.60;;
10383;SDS011;5238;43.508;4.980;2022-12-29T04:31:34;6.97;;;4.55;;
10383;SDS011;5238;43.508;4.980;2022-12-29T04:34:10;8.10;;;4.05;;
10383;SDS011;5238;43.508;4.980;2022-12-29T04:36:51;11.82;;;4.38;;
10383;SDS011;5238;43.508;4.980;2022-12-29T04:39:33;8.60;;;4.05;;
10383;SDS011;5238;43.508;4.980;2022-12-29T04:42:08;5.95;;;3.67;;
10383;SDS011;5238;43.508;4.980;2022-12-29T04:44:35;7.03;;;3.72;;
10383;SDS011;5238;43.508;4.980;2022-12-29T04:47:03;8.20;;;4.20;;
10383;SDS011;5238;43.508;4.980;2022-12-29T04:49:30;6.63;;;4.15;;
10383;SDS011;5238;43.508;4.980;2022-12-29T04:51:57;7.20;;;4.18;;
10383;SDS011;5238;43.508;4.980;2022-12-29T04:54:24;7.78;;;4.13;;
10383;SDS011;5238;43.508;4.980;2022-12-29T04:56:53;6.75;;;3.90;;
10383;SDS011;5238;43.508;4.980;2022-12-29T04:59:20;8.40;;;4.30;;
10383;SDS011;5238;43.508;4.980;2022-12-29T05:01:48;4.97;;;4.22;;
10383;SDS011;5238;43.508;4.980;2022-12-29T05:04:15;6.80;;;4.03;;
10383;SDS011;5238;43.508;4.980;2022-12-29T05:06:42;7.38;;;4.32;;
10383;SDS011;5238;43.508;4.980;2022-12-29T05:09:09;7.53;;;4.47;;
10383;SDS011;5238;43.508;4.980;2022-12-29T05:11:36;6.93;;;4.30;;
10383;SDS011;5238;43.508;4.980;2022-12-29T05:14:15;8.73;;;4.47;;
10383;SDS011;5238;43.508;4.980;2022-12-29T05:16:42;9.35;;;4.35;;
10383;SDS011;5238;43.508;4.980;2022-12-29T05:19:13;15.20;;;5.05;;
10383;SDS011;5238;43.508;4.980;2022-12-29T05:21:41;6.43;;;3.95;;
10383;SDS011;5238;43.508;4.980;2022-12-29T05:24:08;9.00;;;4.55;;
10383;SDS011;5238;43.508;4.980;2022-12-29T05:26:36;4.97;;;3.92;;
10383;SDS011;5238;43.508;4.980;2022-12-29T05:29:03;4.97;;;4.00;;
10383;SDS011;5238;43.508;4.980;2022-12-29T05:31:32;6.45;;;3.55;;
10383;SDS011;5238;43.508;4.980;2022-12-29T05:34:01;9.27;;;4.40;;
10383;SDS011;5238;43.508;4.980;2022-12-29T05:36:30;8.05;;;4.15;;
10383;SDS011;5238;43.508;4.980;2022-12-29T05:38:58;7.88;;;4.03;;
10383;SDS011;5238;43.508;4.980;2022-12-29T05:41:25;6.47;;;3.83;;
10383;SDS011;5238;43.508;4.980;2022-12-29T05:43:53;9.13;;;4.20;;
10383;SDS011;5238;43.508;4.980;2022-12-29T05:46:20;8.00;;;4.07;;
10383;SDS011;5238;43.508;4.980;2022-12-29T05:48:49;7.68;;;4.53;;
10383;SDS011;5238;43.508;4.980;2022-12-29T05:51:16;7.57;;;4.45;;
10383;SDS011;5238;43.508;4.980;2022-12-29T05:53:43;6.95;;;4.43;;
10383;SDS011;5238;43.508;4.980;2022-12-29T05:56:10;10.07;;;4.57;;
10383;SDS011;5238;43.508;4.980;2022-12-29T05:58:37;8.48;;;4.55;;
10383;SDS011;5238;43.508;4.980;2022-12-29T06:01:05;9.60;;;4.35;;
10383;SDS011;5238;43.508;4.980;2022-12-29T06:03:32;6.47;;;4.45;;
10383;SDS011;5238;43.508;4.980;2022-12-29T06:06:00;8.27;;;4.65;;
10383;SDS011;5238;43.508;4.980;2022-12-29T06:08:27;9.68;;;4.40;;
10383;SDS011;5238;43.508;4.980;2022-12-29T06:10:54;10.13;;;4.63;;
10383;SDS011;5238;43.508;4.980;2022-12-29T06:13:22;8.77;;;4.97;;
10383;SDS011;5238;43.508;4.980;2022-12-29T06:15:49;9.50;;;4.82;;
10383;SDS011;5238;43.508;4.980;2022-12-29T06:18:17;7.93;;;4.65;;
10383;SDS011;5238;43.508;4.980;2022-12-29T06:20:44;12.50;;;5.55;;
10383;SDS011;5238;43.508;4.980;2022-12-29T06:23:21;7.90;;;4.82;;
10383;SDS011;5238;43.508;4.980;2022-12-29T06:25:49;6.28;;;4.00;;
10383;SDS011;5238;43.508;4.980;2022-12-29T06:28:16;8.52;;;5.38;;
10383;SDS011;5238;43.508;4.980;2022-12-29T06:30:46;8.98;;;5.35;;
10383;SDS011;5238;43.508;4.980;2022-12-29T06:33:31;7.57;;;5.30;;
10383;SDS011;5238;43.508;4.980;2022-12-29T06:35:59;7.47;;;4.60;;
10383;SDS011;5238;43.508;4.980;2022-12-29T06:38:38;7.32;;;4.97;;
10383;SDS011;5238;43.508;4.980;2022-12-29T06:41:06;8.00;;;4.82;;
10383;SDS011;5238;43.508;4.980;2022-12-29T06:43:33;11.52;;;4.63;;
10383;SDS011;5238;43.508;4.980;2022-12-29T06:46:03;6.30;;;4.50;;
10383;SDS011;5238;43.508;4.980;2022-12-29T06:48:30;10.80;;;4.55;;
10383;SDS011;5238;43.508;4.980;2022-12-29T06:50:57;7.35;;;4.70;;
10383;SDS011;5238;43.508;4.980;2022-12-29T06:53:25;8.05;;;4.82;;
10383;SDS011;5238;43.508;4.980;2022-12-29T06:55:55;9.00;;;5.18;;
10383;SDS011;5238;43.508;4.980;2022-12-29T06:58:36;8.90;;;4.95;;
10383;SDS011;5238;43.508;4.980;2022-12-29T07:01:12;8.88;;;4.90;;
10383;SDS011;5238;43.508;4.980;2022-12-29T07:03:44;7.10;;;4.70;;
10383;SDS011;5238;43.508;4.980;2022-12-29T07:06:25;10.05;;;5.10;;
10383;SDS011;5238;43.508;4.980;2022-12-29T07:09:00;8.20;;;4.68;;
10383;SDS011;5238;43.508;4.980;2022-12-29T07:11:32;8.65;;;5.13;;
10383;SDS011;5238;43.508;4.980;2022-12-29T07:14:02;7.05;;;5.22;;
10383;SDS011;5238;43.508;4.980;2022-12-29T07:16:29;8.98;;;5.45;;
10383;SDS011;5238;43.508;4.980;2022-12-29T07:18:56;9.55;;;5.43;;
10383;SDS011;5238;43.508;4.980;2022-12-29T07:21:25;9.07;;;5.03;;
10383;SDS011;5238;43.508;4.980;2022-12-29T07:24:01;10.23;;;5.30;;
10383;SDS011;5238;43.508;4.980;2022-12-29T07:26:28;9.70;;;6.20;;
10383;SDS011;5238;43.508;4.980;2022-12-29T07:28:56;8.82;;;5.50;;
10383;SDS011;5238;43.508;4.980;2022-12-29T07:31:23;9.60;;;5.90;;
10383;SDS011;5238;43.508;4.980;2022-12-29T07:33:51;8.60;;;5.35;;
10383;SDS011;5238;43.508;4.980;2022-12-29T07:36:32;11.93;;;5.68;;
10383;SDS011;5238;43.508;4.980;2022-12-29T07:39:00;10.88;;;5.90;;
10383;SDS011;5238;43.508;4.980;2022-12-29T07:41:31;12.98;;;5.93;;
10383;SDS011;5238;43.508;4.980;2022-12-29T07:44:09;9.95;;;5.97;;
10383;SDS011;5238;43.508;4.980;2022-12-29T07:46:38;10.30;;;5.45;;
10383;SDS011;5238;43.508;4.980;2022-12-29T07:49:13;10.00;;;5.38;;
10383;SDS011;5238;43.508;4.980;2022-12-29T07:51:41;9.27;;;5.40;;
10383;SDS011;5238;43.508;4.980;2022-12-29T07:54:12;11.88;;;5.45;;
10383;SDS011;5238;43.508;4.980;2022-12-29T07:56:43;6.40;;;5.35;;
10383;SDS011;5238;43.508;4.980;2022-12-29T08:02:14;9.18;;;6.03;;
10383;SDS011;5238;43.508;4.980;2022-12-29T08:04:48;9.88;;;5.93;;
10383;SDS011;5238;43.508;4.980;2022-12-29T08:07:16;7.75;;;5.30;;
10383;SDS011;5238;43.508;4.980;2022-12-29T08:09:47;11.68;;;5.35;;
10383;SDS011;5238;43.508;4.980;2022-12-29T08:12:23;11.18;;;5.88;;
10383;SDS011;5238;43.508;4.980;2022-12-29T08:14:51;11.73;;;5.50;;
10383;SDS011;5238;43.508;4.980;2022-12-29T08:17:22;11.63;;;5.25;;
10383;SDS011;5238;43.508;4.980;2022-12-29T08:19:50;10.32;;;5.32;;
10383;SDS011;5238;43.508;4.980;2022-12-29T08:22:17;9.18;;;4.90;;
10383;SDS011;5238;43.508;4.980;2022-12-29T08:24:44;9.73;;;5.07;;
10383;SDS011;5238;43.508;4.980;2022-12-29T08:27:12;7.55;;;4.63;;
10383;SDS011;5238;43.508;4.980;2022-12-29T08:29:40;9.95;;;5.55;;
10383;SDS011;5238;43.508;4.980;2022-12-29T08:32:12;8.70;;;5.07;;
10383;SDS011;5238;43.508;4.980;2022-12-29T08:34:44;13.35;;;5.40;;
10383;SDS011;5238;43.508;4.980;2022-12-29T08:37:20;9.30;;;5.57;;
10383;SDS011;5238;43.508;4.980;2022-12-29T08:40:02;7.40;;;5.28;;
10383;SDS011;5238;43.508;4.980;2022-12-29T08:42:43;7.95;;;5.32;;
10383;SDS011;5238;43.508;4.980;2022-12-29T08:45:11;8.70;;;5.20;;
10383;SDS011;5238;43.508;4.980;2022-12-29T08:47:52;8.52;;;5.22;;
10383;SDS011;5238;43.508;4.980;2022-12-29T08:50:35;8.50;;;5.32;;
10383;SDS011;5238;43.508;4.980;2022-12-29T08:53:09;8.40;;;5.00;;
10383;SDS011;5238;43.508;4.980;2022-12-29T08:55:41;12.57;;;5.70;;
10383;SDS011;5238;43.508;4.980;2022-12-29T08:58:16;9.30;;;5.80;;
10383;SDS011;5238;43.508;4.980;2022-12-29T09:00:46;12.02;;;6.18;;
10383;SDS011;5238;43.508;4.980;2022-12-29T09:03:24;9.65;;;6.10;;
10383;SDS011;5238;43.508;4.980;2022-12-29T09:05:58;9.27;;;5.55;;
10383;SDS011;5238;43.508;4.980;2022-12-29T09:08:26;11.60;;;5.97;;
10383;SDS011;5238;43.508;4.980;2022-12-29T09:11:07;13.93;;;6.50;;
10383;SDS011;5238;43.508;4.980;2022-12-29T09:13:36;11.43;;;5.70;;
10383;SDS011;5238;43.508;4.980;2022-12-29T09:16:06;12.25;;;6.07;;
10383;SDS011;5238;43.508;4.980;2022-12-29T09:18:34;12.02;;;7.03;;
10383;SDS011;5238;43.508;4.980;2022-12-29T09:21:06;12.05;;;7.13;;
10383;SDS011;5238;43.508;4.980;2022-12-29T09:23:34;13.88;;;7.18;;
10383;SDS011;5238;43.508;4.980;2022-12-29T09:26:03;14.90;;;6.63;;
10383;SDS011;5238;43.508;4.980;2022-12-29T09:28:38;14.48;;;7.45;;
10383;SDS011;5238;43.508;4.980;2022-12-29T09:31:05;10.05;;;7.05;;
10383;SDS011;5238;43.508;4.980;2022-12-29T09:33:47;13.55;;;6.95;;
10383;SDS011;5238;43.508;4.980;2022-12-29T09:36:18;12.57;;;6.93;;
10383;SDS011;5238;43.508;4.980;2022-12-29T09:38:45;15.75;;;7.50;;
10383;SDS011;5238;43.508;4.980;2022-12-29T09:41:26;10.32;;;6.65;;
10383;SDS011;5238;43.508;4.980;2022-12-29T09:44:06;12.70;;;7.97;;
10383;SDS011;5238;43.508;4.980;2022-12-29T09:46:43;10.38;;;7.05;;
10383;SDS011;5238;43.508;4.980;2022-12-29T09:49:23;12.50;;;7.40;;
10383;SDS011;5238;43.508;4.980;2022-12-29T09:52:02;10.00;;;6.85;;
10383;SDS011;5238;43.508;4.980;2022-12-29T09:54:45;12.60;;;7.60;;
10383;SDS011;5238;43.508;4.980;2022-12-29T09:57:21;9.77;;;6.60;;
10383;SDS011;5238;43.508;4.980;2022-12-29T09:59:57;12.38;;;7.78;;
10383;SDS011;5238;43.508;4.980;2022-12-29T10:02:37;15.90;;;7.70;;
10383;SDS011;5238;43.508;4.980;2022-12-29T10:05:19;12.70;;;7.05;;
10383;SDS011;5238;43.508;4.980;2022-12-29T10:08:16;15.77;;;7.97;;
10383;SDS011;5238;43.508;4.980;2022-12-29T10:10:54;11.75;;;7.07;;
10383;SDS011;5238;43.508;4.980;2022-12-29T10:13:43;12.40;;;6.55;;
10383;SDS011;5238;43.508;4.980;2022-12-29T10:16:43;10.00;;;6.72;;
10383;SDS011;5238;43.508;4.980;2022-12-29T10:19:38;13.20;;;6.93;;
10383;SDS011;5238;43.508;4.980;2022-12-29T10:22:18;13.93;;;7.75;;
10383;SDS011;5238;43.508;4.980;2022-12-29T10:27:47;13.90;;;8.38;;
10383;SDS011;5238;43.508;4.980;2022-12-29T10:30:24;12.00;;;7.43;;
10383;SDS011;5238;43.508;4.980;2022-12-29T10:32:54;15.88;;;8.20;;
10383;SDS011;5238;43.508;4.980;2022-12-29T10:35:31;12.98;;;8.25;;
10383;SDS011;5238;43.508;4.980;2022-12-29T10:38:05;12.70;;;8.73;;
10383;SDS011;5238;43.508;4.980;2022-12-29T10:40:48;13.23;;;8.05;;
10383;SDS011;5238;43.508;4.980;2022-12-29T10:43:26;11.27;;;7.90;;
10383;SDS011;5238;43.508;4.980;2022-12-29T10:46:01;11.68;;;7.75;;
10383;SDS011;5238;43.508;4.980;2022-12-29T10:48:35;12.27;;;7.82;;
10383;SDS011;5238;43.508;4.980;2022-12-29T10:51:05;14.45;;;8.30;;
10383;SDS011;5238;43.508;4.980;2022-12-29T10:53:49;13.07;;;7.63;;
10383;SDS011;5238;43.508;4.980;2022-12-29T10:56:25;14.05;;;8.80;;
10383;SDS011;5238;43.508;4.980;2022-12-29T10:58:58;13.82;;;9.38;;
10383;SDS011;5238;43.508;4.980;2022-12-29T11:01:31;13.10;;;8.80;;
10383;SDS011;5238;43.508;4.980;2022-12-29T11:04:22;13.77;;;9.32;;
10383;SDS011;5238;43.508;4.980;2022-12-29T11:07:20;11.95;;;8.13;;
10383;SDS011;5238;43.508;4.980;2022-12-29T11:09:48;16.38;;;8.80;;
10383;SDS011;5238;43.508;4.980;2022-12-29T11:12:23;15.90;;;8.15;;
10383;SDS011;5238;43.508;4.980;2022-12-29T11:15:11;15.82;;;8.18;;
10383;SDS011;5238;43.508;4.980;2022-12-29T11:17:45;17.67;;;8.10;;
10383;SDS011;5238;43.508;4.980;2022-12-29T11:23:26;12.80;;;7.68;;
10383;SDS011;5238;43.508;4.980;2022-12-29T11:26:07;12.68;;;7.90;;
10383;SDS011;5238;43.508;4.980;2022-12-29T11:29:02;10.48;;;8.10;;
10383;SDS011;5238;43.508;4.980;2022-12-29T11:31:39;16.33;;;8.25;;
10383;SDS011;5238;43.508;4.980;2022-12-29T11:34:08;15.85;;;8.50;;
10383;SDS011;5238;43.508;4.980;2022-12-29T11:36:45;13.73;;;8.82;;
10383;SDS011;5238;43.508;4.980;2022-12-29T11:42:12;14.27;;;8.60;;
10383;SDS011;5238;43.508;4.980;2022-12-29T11:47:30;13.40;;;8.32;;
10383;SDS011;5238;43.508;4.980;2022-12-29T11:50:02;15.05;;;9.02;;
10383;SDS011;5238;43.508;4.980;2022-12-29T11:52:36;15.07;;;8.35;;
10383;SDS011;5238;43.508;4.980;2022-12-29T11:55:16;14.50;;;8.50;;
10383;SDS011;5238;43.508;4.980;2022-12-29T11:57:48;12.68;;;7.85;;
10383;SDS011;5238;43.508;4.980;2022-12-29T12:00:28;9.98;;;7.00;;
10383;SDS011;5238;43.508;4.980;2022-12-29T12:03:00;13.77;;;7.68;;
10383;SDS011;5238;43.508;4.980;2022-12-29T12:05:33;12.00;;;7.65;;
10383;SDS011;5238;43.508;4.980;2022-12-29T12:08:09;13.48;;;7.68;;
10383;SDS011;5238;43.508;4.980;2022-12-29T12:10:46;10.80;;;7.05;;
10383;SDS011;5238;43.508;4.980;2022-12-29T12:13:22;13.85;;;7.32;;
10383;SDS011;5238;43.508;4.980;2022-12-29T12:16:00;12.73;;;6.90;;
10383;SDS011;5238;43.508;4.980;2022-12-29T12:18:37;16.60;;;7.22;;
10383;SDS011;5238;43.508;4.980;2022-12-29T12:21:14;11.40;;;6.40;;
10383;SDS011;5238;43.508;4.980;2022-12-29T12:23:54;9.93;;;6.28;;
10383;SDS011;5238;43.508;4.980;2022-12-29T12:26:42;11.38;;;5.93;;
10383;SDS011;5238;43.508;4.980;2022-12-29T12:29:22;10.00;;;5.70;;
10383;SDS011;5238;43.508;4.980;2022-12-29T12:32:01;9.93;;;5.47;;
10383;SDS011;5238;43.508;4.980;2022-12-29T12:34:38;7.60;;;5.05;;
10383;SDS011;5238;43.508;4.980;2022-12-29T12:37:19;6.78;;;5.22;;
10383;SDS011;5238;43.508;4.980;2022-12-29T12:40:05;9.07;;;5.20;;
10383;SDS011;5238;43.508;4.980;2022-12-29T12:43:01;7.63;;;5.20;;
10383;SDS011;5238;43.508;4.980;2022-12-29T12:45:50;6.18;;;5.20;;
10383;SDS011;5238;43.508;4.980;2022-12-29T12:48:32;11.98;;;5.47;;
10383;SDS011;5238;43.508;4.980;2022-12-29T12:51:14;10.00;;;5.18;;
10383;SDS011;5238;43.508;4.980;2022-12-29T12:53:58;8.40;;;5.00;;
10383;SDS011;5238;43.508;4.980;2022-12-29T12:59:42;8.63;;;5.50;;
10383;SDS011;5238;43.508;4.980;2022-12-29T13:02:28;9.38;;;5.03;;
10383;SDS011;5238;43.508;4.980;2022-12-29T13:05:24;9.05;;;4.63;;
10383;SDS011;5238;43.508;4.980;2022-12-29T13:08:19;7.70;;;4.93;;
10383;SDS011;5238;43.508;4.980;2022-12-29T13:11:12;9.23;;;5.28;;
10383;SDS011;5238;43.508;4.980;2022-12-29T13:14:09;11.07;;;5.45;;
10383;SDS011;5238;43.508;4.980;2022-12-29T13:16:50;9.93;;;5.47;;
10383;SDS011;5238;43.508;4.980;2022-12-29T13:19:26;9.07;;;5.45;;
10383;SDS011;5238;43.508;4.980;2022-12-29T13:22:12;10.50;;;5.15;;
10383;SDS011;5238;43.508;4.980;2022-12-29T13:25:01;7.47;;;4.60;;
10383;SDS011;5238;43.508;4.980;2022-12-29T13:27:51;9.95;;;5.07;;
10383;SDS011;5238;43.508;4.980;2022-12-29T13:30:27;7.63;;;5.32;;
10383;SDS011;5238;43.508;4.980;2022-12-29T13:33:00;11.20;;;5.22;;
10383;SDS011;5238;43.508;4.980;2022-12-29T13:35:54;7.93;;;5.13;;
10383;SDS011;5238;43.508;4.980;2022-12-29T13:41:12;7.75;;;4.70;;
10383;SDS011;5238;43.508;4.980;2022-12-29T13:43:52;7.63;;;5.32;;
10383;SDS011;5238;43.508;4.980;2022-12-29T13:46:21;17.02;;;6.50;;
10383;SDS011;5238;43.508;4.980;2022-12-29T13:48:53;35.78;;;8.63;;
10383;SDS011;5238;43.508;4.980;2022-12-29T13:51:24;34.55;;;7.63;;
10383;SDS011;5238;43.508;4.980;2022-12-29T13:54:00;24.92;;;7.20;;
10383;SDS011;5238;43.508;4.980;2022-12-29T13:56:37;13.23;;;5.32;;
10383;SDS011;5238;43.508;4.980;2022-12-29T13:59:09;6.72;;;5.18;;
10383;SDS011;5238;43.508;4.980;2022-12-29T14:01:46;9.13;;;5.53;;
10383;SDS011;5238;43.508;4.980;2022-12-29T14:04:21;11.32;;;7.18;;
10383;SDS011;5238;43.508;4.980;2022-12-29T14:06:58;10.15;;;6.47;;
10383;SDS011;5238;43.508;4.980;2022-12-29T14:09:43;9.50;;;6.80;;
10383;SDS011;5238;43.508;4.980;2022-12-29T14:12:27;8.70;;;5.68;;
10383;SDS011;5238;43.508;4.980;2022-12-29T14:20:39;5.85;;;4.07;;
10383;SDS011;5238;43.508;4.980;2022-12-29T14:23:25;9.38;;;4.72;;
10383;SDS011;5238;43.508;4.980;2022-12-29T14:25:59;9.18;;;4.72;;
10383;SDS011;5238;43.508;4.980;2022-12-29T14:28:37;11.10;;;5.63;;
10383;SDS011;5238;43.508;4.980;2022-12-29T14:34:29;9.02;;;5.22;;
10383;SDS011;5238;43.508;4.980;2022-12-29T14:37:17;10.60;;;5.07;;
10383;SDS011;5238;43.508;4.980;2022-12-29T14:40:02;12.27;;;5.78;;
10383;SDS011;5238;43.508;4.980;2022-12-29T14:42:42;12.85;;;5.35;;
10383;SDS011;5238;43.508;4.980;2022-12-29T14:45:26;6.97;;;4.75;;
10383;SDS011;5238;43.508;4.980;2022-12-29T14:47:57;6.35;;;4.90;;
10383;SDS011;5238;43.508;4.980;2022-12-29T14:50:30;10.57;;;5.25;;
10383;SDS011;5238;43.508;4.980;2022-12-29T14:53:10;9.73;;;4.90;;
10383;SDS011;5238;43.508;4.980;2022-12-29T14:56:17;10.60;;;5.45;;
10383;SDS011;5238;43.508;4.980;2022-12-29T14:59:01;16.58;;;7.63;;
10383;SDS011;5238;43.508;4.980;2022-12-29T15:01:45;12.80;;;7.90;;
10383;SDS011;5238;43.508;4.980;2022-12-29T15:04:21;12.27;;;5.88;;
10383;SDS011;5238;43.508;4.980;2022-12-29T15:06:51;14.40;;;6.78;;
10383;SDS011;5238;43.508;4.980;2022-12-29T15:09:29;11.00;;;5.90;;
10383;SDS011;5238;43.508;4.980;2022-12-29T15:12:03;10.07;;;5.38;;
10383;SDS011;5238;43.508;4.980;2022-12-29T15:14:49;8.52;;;5.45;;
10383;SDS011;5238;43.508;4.980;2022-12-29T15:17:24;9.90;;;5.82;;
10383;SDS011;5238;43.508;4.980;2022-12-29T15:19:58;12.63;;;6.85;;
10383;SDS011;5238;43.508;4.980;2022-12-29T15:22:28;13.63;;;7.15;;
10383;SDS011;5238;43.508;4.980;2022-12-29T15:25:12;12.50;;;6.13;;
10383;SDS011;5238;43.508;4.980;2022-12-29T15:27:55;11.27;;;5.43;;
10383;SDS011;5238;43.508;4.980;2022-12-29T15:33:53;9.70;;;5.45;;
10383;SDS011;5238;43.508;4.980;2022-12-29T15:36:27;8.95;;;5.88;;
10383;SDS011;5238;43.508;4.980;2022-12-29T15:38:58;11.60;;;6.25;;
10383;SDS011;5238;43.508;4.980;2022-12-29T15:41:34;11.88;;;6.85;;
10383;SDS011;5238;43.508;4.980;2022-12-29T15:44:20;10.55;;;7.50;;
10383;SDS011;5238;43.508;4.980;2022-12-29T15:46:51;9.00;;;6.53;;
10383;SDS011;5238;43.508;4.980;2022-12-29T15:49:34;10.27;;;7.05;;
10383;SDS011;5238;43.508;4.980;2022-12-29T15:52:06;11.80;;;6.32;;
10383;SDS011;5238;43.508;4.980;2022-12-29T15:54:34;14.02;;;6.90;;
10383;SDS011;5238;43.508;4.980;2022-12-29T15:57:21;12.20;;;10.93;;
10383;SDS011;5238;43.508;4.980;2022-12-29T15:59:51;11.20;;;7.13;;
10383;SDS011;5238;43.508;4.980;2022-12-29T16:02:19;14.98;;;8.23;;
10383;SDS011;5238;43.508;4.980;2022-12-29T16:04:49;12.85;;;6.78;;
10383;SDS011;5238;43.508;4.980;2022-12-29T16:07:25;12.65;;;7.32;;
10383;SDS011;5238;43.508;4.980;2022-12-29T16:10:22;14.95;;;6.93;;
10383;SDS011;5238;43.508;4.980;2022-12-29T16:12:56;16.10;;;7.20;;
10383;SDS011;5238;43.508;4.980;2022-12-29T16:15:30;12.18;;;6.82;;
10383;SDS011;5238;43.508;4.980;2022-12-29T16:18:03;10.27;;;6.47;;
10383;SDS011;5238;43.508;4.980;2022-12-29T16:20:48;11.68;;;6.72;;